sensor_id;sensor_type;location;lat;lon;timestamp;P1;durP1;ratioP1;P2;durP2;ratioP2
53479;SDS011;56133;51.012;-1.648;2022-12-29T00:02:21;31.85;;;5.18;;
53479;SDS011;56133;51.012;-1.648;2022-12-29T00:04:48;39.38;;;5.53;;
53479;SDS011;56133;51.012;-1.648;2022-12-29T00:07:15;34.75;;;5.78;;
53479;SDS011;56133;51.012;-1.648;2022-12-29T00:09:41;41.42;;;6.50;;
53479;SDS011;56133;51.012;-1.648;2022-12-29T00:12:06;42.95;;;7.63;;
53479;SDS011;56133;51.012;-1.648;2022-12-29T00:14:32;46.95;;;8.82;;
53479;SDS011;56133;51.012;-1.648;2022-12-29T00:17:15;44.30;;;7.53;;
53479;SDS011;56133;51.012;-1.648;2022-12-29T00:19:41;45.95;;;6.65;;
53479;SDS011;56133;51.012;-1.648;2022-12-29T00:22:25;57.40;;;8.23;;
53479;SDS011;56133;51.012;-1.648;2022-12-29T00:25:10;43.93;;;6.23;;
53479;SDS011;56133;51.012;-1.648;2022-12-29T00:27:55;50.47;;;6.85;;
53479;SDS011;56133;51.012;-1.648;2022-12-29T00:30:39;44.38;;;6.22;;
53479;SDS011;56133;51.012;-1.648;2022-12-29T00:33:33;41.80;;;6.10;;
53479;SDS011;56133;51.012;-1.648;2022-12-29T00:38:45;33.25;;;5.63;;
53479;SDS011;56133;51.012;-1.648;2022-12-29T00:41:33;40.55;;;5.80;;
53479;SDS011;56133;51.012;-1.648;2022-12-29T00:44:17;32.72;;;5.00;;
53479;SDS011;56133;51.012;-1.648;2022-12-29T00:46:43;31.50;;;4.85;;
53479;SDS011;56133;51.012;-1.648;2022-12-29T00:49:09;25.63;;;3.92;;
53479;SDS011;56133;51.012;-1.648;2022-12-29T00:52:01;25.88;;;4.18;;
53479;SDS011;56133;51.012;-1.648;2022-12-29T00:54:29;29.08;;;4.30;;
53479;SDS011;56133;51.012;-1.648;2022-12-29T00:56:57;23.77;;;4.57;;
53479;SDS011;56133;51.012;-1.648;2022-12-29T00:59:23;29.70;;;4.10;;
53479;SDS011;56133;51.012;-1.648;2022-12-29T01:01:49;31.25;;;4.35;;
53479;SDS011;56133;51.012;-1.648;2022-12-29T01:04:16;31.25;;;4.20;;
53479;SDS011;56133;51.012;-1.648;2022-12-29T01:06:41;32.72;;;4.88;;
53479;SDS011;56133;51.012;-1.648;2022-12-29T01:09:07;34.92;;;5.68;;
53479;SDS011;56133;51.012;-1.648;2022-12-29T01:11:51;36.72;;;4.80;;
53479;SDS011;56133;51.012;-1.648;2022-12-29T01:14:17;40.10;;;5.85;;
53479;SDS011;56133;51.012;-1.648;2022-12-29T01:16:43;34.10;;;5.35;;
53479;SDS011;56133;51.012;-1.648;2022-12-29T01:19:09;35.20;;;5.25;;
53479;SDS011;56133;51.012;-1.648;2022-12-29T01:21:35;38.13;;;5.22;;
53479;SDS011;56133;51.012;-1.648;2022-12-29T01:24:00;42.65;;;5.30;;
53479;SDS011;56133;51.012;-1.648;2022-12-29T01:26:26;39.08;;;5.78;;
53479;SDS011;56133;51.012;-1.648;2022-12-29T01:28:52;45.90;;;5.68;;
53479;SDS011;56133;51.012;-1.648;2022-12-29T01:31:17;45.80;;;6.20;;
53479;SDS011;56133;51.012;-1.648;2022-12-29T01:33:43;49.85;;;5.60;;
53479;SDS011;56133;51.012;-1.648;2022-12-29T01:36:12;41.25;;;4.72;;
53479;SDS011;56133;51.012;-1.648;2022-12-29T01:38:40;47.97;;;6.18;;
53479;SDS011;56133;51.012;-1.648;2022-12-29T01:41:06;49.28;;;6.53;;
53479;SDS011;56133;51.012;-1.648;2022-12-29T01:43:46;42.22;;;6.32;;
53479;SDS011;56133;51.012;-1.648;2022-12-29T01:51:53;41.97;;;6.00;;
53479;SDS011;56133;51.012;-1.648;2022-12-29T01:57:02;43.80;;;6.57;;
53479;SDS011;56133;51.012;-1.648;2022-12-29T01:59:31;41.05;;;6.07;;
53479;SDS011;56133;51.012;-1.648;2022-12-29T02:01:59;43.22;;;5.82;;
53479;SDS011;56133;51.012;-1.648;2022-12-29T02:04:25;39.38;;;5.13;;
53479;SDS011;56133;51.012;-1.648;2022-12-29T02:06:59;44.45;;;6.65;;
53479;SDS011;56133;51.012;-1.648;2022-12-29T02:09:29;40.22;;;6.38;;
53479;SDS011;56133;51.012;-1.648;2022-12-29T02:11:55;39.47;;;6.93;;
53479;SDS011;56133;51.012;-1.648;2022-12-29T02:14:22;41.88;;;5.68;;
53479;SDS011;56133;51.012;-1.648;2022-12-29T02:19:46;34.55;;;6.18;;
53479;SDS011;56133;51.012;-1.648;2022-12-29T02:28:29;37.10;;;4.63;;
53479;SDS011;56133;51.012;-1.648;2022-12-29T02:31:18;37.38;;;6.65;;
53479;SDS011;56133;51.012;-1.648;2022-12-29T02:39:38;37.13;;;6.50;;
53479;SDS011;56133;51.012;-1.648;2022-12-29T02:42:51;38.65;;;5.68;;
53479;SDS011;56133;51.012;-1.648;2022-12-29T02:50:19;37.22;;;5.72;;
53479;SDS011;56133;51.012;-1.648;2022-12-29T02:52:54;36.47;;;5.43;;
53479;SDS011;56133;51.012;-1.648;2022-12-29T02:55:24;34.17;;;5.40;;
53479;SDS011;56133;51.012;-1.648;2022-12-29T02:58:02;40.28;;;6.63;;
53479;SDS011;56133;51.012;-1.648;2022-12-29T03:00:33;33.17;;;5.55;;
53479;SDS011;56133;51.012;-1.648;2022-12-29T03:05:41;40.17;;;6.63;;
53479;SDS011;56133;51.012;-1.648;2022-12-29T03:16:57;32.70;;;5.82;;
53479;SDS011;56133;51.012;-1.648;2022-12-29T03:19:36;27.00;;;4.55;;
53479;SDS011;56133;51.012;-1.648;2022-12-29T03:22:07;32.78;;;4.97;;
53479;SDS011;56133;51.012;-1.648;2022-12-29T03:25:03;28.35;;;4.65;;
53479;SDS011;56133;51.012;-1.648;2022-12-29T03:27:30;34.65;;;5.28;;
53479;SDS011;56133;51.012;-1.648;2022-12-29T03:30:05;31.00;;;4.55;;
53479;SDS011;56133;51.012;-1.648;2022-12-29T03:32:33;37.08;;;5.68;;
53479;SDS011;56133;51.012;-1.648;2022-12-29T03:35:03;34.08;;;5.68;;
53479;SDS011;56133;51.012;-1.648;2022-12-29T03:37:32;35.83;;;6.18;;
53479;SDS011;56133;51.012;-1.648;2022-12-29T03:40:02;42.50;;;6.07;;
53479;SDS011;56133;51.012;-1.648;2022-12-29T03:42:29;41.58;;;7.07;;
53479;SDS011;56133;51.012;-1.648;2022-12-29T03:44:58;49.30;;;7.00;;
53479;SDS011;56133;51.012;-1.648;2022-12-29T03:47:24;39.78;;;6.13;;
53479;SDS011;56133;51.012;-1.648;2022-12-29T03:49:49;48.83;;;6.65;;
53479;SDS011;56133;51.012;-1.648;2022-12-29T03:52:18;39.17;;;6.53;;
53479;SDS011;56133;51.012;-1.648;2022-12-29T03:54:44;40.15;;;6.32;;
53479;SDS011;56133;51.012;-1.648;2022-12-29T03:57:10;48.45;;;7.20;;
53479;SDS011;56133;51.012;-1.648;2022-12-29T03:59:36;45.85;;;6.65;;
53479;SDS011;56133;51.012;-1.648;2022-12-29T04:02:01;44.15;;;6.25;;
53479;SDS011;56133;51.012;-1.648;2022-12-29T04:04:27;44.83;;;6.20;;
53479;SDS011;56133;51.012;-1.648;2022-12-29T04:06:52;37.25;;;5.72;;
53479;SDS011;56133;51.012;-1.648;2022-12-29T04:09:18;43.17;;;6.38;;
53479;SDS011;56133;51.012;-1.648;2022-12-29T04:11:43;36.05;;;5.45;;
53479;SDS011;56133;51.012;-1.648;2022-12-29T04:14:09;33.13;;;5.80;;
53479;SDS011;56133;51.012;-1.648;2022-12-29T04:16:34;32.67;;;5.63;;
53479;SDS011;56133;51.012;-1.648;2022-12-29T04:19:01;40.53;;;5.20;;
53479;SDS011;56133;51.012;-1.648;2022-12-29T04:21:27;33.00;;;5.40;;
53479;SDS011;56133;51.012;-1.648;2022-12-29T04:23:53;29.13;;;4.45;;
53479;SDS011;56133;51.012;-1.648;2022-12-29T04:26:18;36.60;;;5.13;;
53479;SDS011;56133;51.012;-1.648;2022-12-29T04:28:44;24.00;;;3.97;;
53479;SDS011;56133;51.012;-1.648;2022-12-29T04:31:09;20.67;;;2.90;;
53479;SDS011;56133;51.012;-1.648;2022-12-29T04:33:35;18.50;;;2.85;;
53479;SDS011;56133;51.012;-1.648;2022-12-29T04:36:00;13.55;;;2.63;;
53479;SDS011;56133;51.012;-1.648;2022-12-29T04:38:26;14.80;;;2.20;;
53479;SDS011;56133;51.012;-1.648;2022-12-29T04:40:51;15.18;;;2.05;;
53479;SDS011;56133;51.012;-1.648;2022-12-29T04:43:17;13.75;;;2.30;;
53479;SDS011;56133;51.012;-1.648;2022-12-29T04:45:47;12.63;;;1.40;;
53479;SDS011;56133;51.012;-1.648;2022-12-29T04:48:13;13.77;;;1.95;;
53479;SDS011;56133;51.012;-1.648;2022-12-29T04:50:39;14.82;;;1.65;;
53479;SDS011;56133;51.012;-1.648;2022-12-29T04:53:05;8.93;;;1.27;;
53479;SDS011;56133;51.012;-1.648;2022-12-29T04:55:32;10.40;;;1.85;;
53479;SDS011;56133;51.012;-1.648;2022-12-29T04:57:57;9.13;;;1.38;;
53479;SDS011;56133;51.012;-1.648;2022-12-29T05:00:23;7.28;;;1.00;;
53479;SDS011;56133;51.012;-1.648;2022-12-29T05:02:48;8.75;;;1.08;;
53479;SDS011;56133;51.012;-1.648;2022-12-29T05:05:14;12.13;;;1.63;;
53479;SDS011;56133;51.012;-1.648;2022-12-29T05:07:39;5.88;;;0.88;;
53479;SDS011;56133;51.012;-1.648;2022-12-29T05:10:06;9.40;;;0.95;;
53479;SDS011;56133;51.012;-1.648;2022-12-29T05:12:32;4.88;;;0.80;;
53479;SDS011;56133;51.012;-1.648;2022-12-29T05:14:58;8.18;;;0.73;;
53479;SDS011;56133;51.012;-1.648;2022-12-29T05:17:24;7.43;;;0.90;;
53479;SDS011;56133;51.012;-1.648;2022-12-29T05:19:51;5.13;;;0.63;;
53479;SDS011;56133;51.012;-1.648;2022-12-29T05:22:16;5.70;;;1.00;;
53479;SDS011;56133;51.012;-1.648;2022-12-29T05:24:41;5.53;;;0.90;;
53479;SDS011;56133;51.012;-1.648;2022-12-29T05:27:07;6.15;;;0.70;;
53479;SDS011;56133;51.012;-1.648;2022-12-29T05:29:32;9.30;;;1.55;;
53479;SDS011;56133;51.012;-1.648;2022-12-29T05:31:58;5.75;;;0.90;;
53479;SDS011;56133;51.012;-1.648;2022-12-29T05:34:23;9.52;;;0.88;;
53479;SDS011;56133;51.012;-1.648;2022-12-29T05:36:49;2.58;;;0.50;;
53479;SDS011;56133;51.012;-1.648;2022-12-29T05:39:14;5.57;;;0.80;;
53479;SDS011;56133;51.012;-1.648;2022-12-29T05:41:40;4.68;;;0.65;;
53479;SDS011;56133;51.012;-1.648;2022-12-29T05:44:05;6.20;;;0.98;;
53479;SDS011;56133;51.012;-1.648;2022-12-29T05:46:31;5.65;;;0.60;;
53479;SDS011;56133;51.012;-1.648;2022-12-29T05:48:57;5.45;;;0.70;;
53479;SDS011;56133;51.012;-1.648;2022-12-29T05:51:22;4.72;;;0.68;;
53479;SDS011;56133;51.012;-1.648;2022-12-29T05:53:48;7.03;;;0.60;;
53479;SDS011;56133;51.012;-1.648;2022-12-29T05:56:14;8.13;;;0.90;;
53479;SDS011;56133;51.012;-1.648;2022-12-29T05:58:39;9.93;;;1.08;;
53479;SDS011;56133;51.012;-1.648;2022-12-29T06:01:04;6.80;;;0.77;;
53479;SDS011;56133;51.012;-1.648;2022-12-29T06:03:30;8.57;;;0.93;;
53479;SDS011;56133;51.012;-1.648;2022-12-29T06:05:55;9.23;;;0.85;;
53479;SDS011;56133;51.012;-1.648;2022-12-29T06:08:21;8.48;;;0.88;;
53479;SDS011;56133;51.012;-1.648;2022-12-29T06:10:46;5.10;;;0.70;;
53479;SDS011;56133;51.012;-1.648;2022-12-29T06:13:12;9.20;;;1.00;;
53479;SDS011;56133;51.012;-1.648;2022-12-29T06:15:37;7.97;;;1.40;;
53479;SDS011;56133;51.012;-1.648;2022-12-29T06:18:03;7.13;;;1.23;;
53479;SDS011;56133;51.012;-1.648;2022-12-29T06:20:28;10.32;;;1.20;;
53479;SDS011;56133;51.012;-1.648;2022-12-29T06:22:54;9.52;;;1.33;;
53479;SDS011;56133;51.012;-1.648;2022-12-29T06:25:19;8.95;;;0.85;;
53479;SDS011;56133;51.012;-1.648;2022-12-29T06:27:44;10.23;;;1.40;;
53479;SDS011;56133;51.012;-1.648;2022-12-29T06:30:10;9.02;;;1.17;;
53479;SDS011;56133;51.012;-1.648;2022-12-29T06:32:36;7.88;;;1.00;;
53479;SDS011;56133;51.012;-1.648;2022-12-29T06:35:02;13.07;;;1.30;;
53479;SDS011;56133;51.012;-1.648;2022-12-29T06:37:29;6.82;;;1.30;;
53479;SDS011;56133;51.012;-1.648;2022-12-29T06:39:54;8.27;;;1.05;;
53479;SDS011;56133;51.012;-1.648;2022-12-29T06:42:20;10.32;;;1.25;;
53479;SDS011;56133;51.012;-1.648;2022-12-29T06:44:45;9.00;;;1.40;;
53479;SDS011;56133;51.012;-1.648;2022-12-29T06:47:11;11.95;;;1.50;;
53479;SDS011;56133;51.012;-1.648;2022-12-29T06:49:36;10.95;;;1.00;;
53479;SDS011;56133;51.012;-1.648;2022-12-29T06:52:02;11.48;;;1.33;;
53479;SDS011;56133;51.012;-1.648;2022-12-29T06:54:29;6.43;;;1.13;;
53479;SDS011;56133;51.012;-1.648;2022-12-29T06:56:55;6.32;;;0.82;;
53479;SDS011;56133;51.012;-1.648;2022-12-29T06:59:21;12.88;;;1.50;;
53479;SDS011;56133;51.012;-1.648;2022-12-29T07:01:47;12.57;;;1.10;;
53479;SDS011;56133;51.012;-1.648;2022-12-29T07:04:12;6.22;;;1.00;;
53479;SDS011;56133;51.012;-1.648;2022-12-29T07:06:38;9.05;;;1.17;;
53479;SDS011;56133;51.012;-1.648;2022-12-29T07:09:05;10.95;;;1.20;;
53479;SDS011;56133;51.012;-1.648;2022-12-29T07:11:31;10.38;;;1.75;;
53479;SDS011;56133;51.012;-1.648;2022-12-29T07:13:57;11.60;;;1.13;;
53479;SDS011;56133;51.012;-1.648;2022-12-29T07:16:22;8.73;;;1.25;;
53479;SDS011;56133;51.012;-1.648;2022-12-29T07:18:48;8.45;;;1.10;;
53479;SDS011;56133;51.012;-1.648;2022-12-29T07:21:13;7.07;;;1.05;;
53479;SDS011;56133;51.012;-1.648;2022-12-29T07:23:39;9.23;;;1.05;;
53479;SDS011;56133;51.012;-1.648;2022-12-29T07:26:05;12.32;;;1.58;;
53479;SDS011;56133;51.012;-1.648;2022-12-29T07:28:33;10.48;;;1.20;;
53479;SDS011;56133;51.012;-1.648;2022-12-29T07:30:59;13.25;;;1.75;;
53479;SDS011;56133;51.012;-1.648;2022-12-29T07:33:25;9.30;;;1.52;;
53479;SDS011;56133;51.012;-1.648;2022-12-29T07:35:53;9.10;;;1.38;;
53479;SDS011;56133;51.012;-1.648;2022-12-29T07:38:18;10.00;;;1.33;;
53479;SDS011;56133;51.012;-1.648;2022-12-29T07:40:44;14.93;;;2.20;;
53479;SDS011;56133;51.012;-1.648;2022-12-29T07:43:09;11.43;;;1.40;;
53479;SDS011;56133;51.012;-1.648;2022-12-29T07:45:34;9.45;;;1.30;;
53479;SDS011;56133;51.012;-1.648;2022-12-29T07:48:00;12.75;;;1.77;;
53479;SDS011;56133;51.012;-1.648;2022-12-29T07:50:27;16.67;;;2.35;;
53479;SDS011;56133;51.012;-1.648;2022-12-29T07:52:53;13.43;;;1.48;;
53479;SDS011;56133;51.012;-1.648;2022-12-29T07:55:18;12.60;;;1.58;;
53479;SDS011;56133;51.012;-1.648;2022-12-29T07:57:44;11.38;;;1.15;;
53479;SDS011;56133;51.012;-1.648;2022-12-29T08:00:09;7.95;;;1.30;;
53479;SDS011;56133;51.012;-1.648;2022-12-29T08:02:36;9.52;;;1.10;;
53479;SDS011;56133;51.012;-1.648;2022-12-29T08:05:01;9.32;;;1.00;;
53479;SDS011;56133;51.012;-1.648;2022-12-29T08:07:27;8.52;;;1.10;;
53479;SDS011;56133;51.012;-1.648;2022-12-29T08:09:52;4.32;;;0.70;;
53479;SDS011;56133;51.012;-1.648;2022-12-29T08:12:18;9.05;;;1.17;;
53479;SDS011;56133;51.012;-1.648;2022-12-29T08:14:44;9.07;;;0.90;;
53479;SDS011;56133;51.012;-1.648;2022-12-29T08:17:09;10.55;;;0.82;;
53479;SDS011;56133;51.012;-1.648;2022-12-29T08:19:35;10.82;;;0.60;;
53479;SDS011;56133;51.012;-1.648;2022-12-29T08:22:01;3.10;;;0.47;;
53479;SDS011;56133;51.012;-1.648;2022-12-29T08:24:27;3.78;;;0.38;;
53479;SDS011;56133;51.012;-1.648;2022-12-29T08:26:52;3.58;;;0.52;;
53479;SDS011;56133;51.012;-1.648;2022-12-29T08:29:18;4.43;;;0.52;;
53479;SDS011;56133;51.012;-1.648;2022-12-29T08:31:44;4.82;;;0.43;;
53479;SDS011;56133;51.012;-1.648;2022-12-29T08:34:10;3.88;;;0.63;;
53479;SDS011;56133;51.012;-1.648;2022-12-29T08:36:35;3.63;;;0.65;;
53479;SDS011;56133;51.012;-1.648;2022-12-29T08:39:01;4.32;;;0.70;;
53479;SDS011;56133;51.012;-1.648;2022-12-29T08:41:26;4.18;;;0.85;;
53479;SDS011;56133;51.012;-1.648;2022-12-29T08:43:52;6.97;;;0.90;;
53479;SDS011;56133;51.012;-1.648;2022-12-29T08:46:18;7.20;;;0.80;;
53479;SDS011;56133;51.012;-1.648;2022-12-29T08:48:44;5.80;;;0.63;;
53479;SDS011;56133;51.012;-1.648;2022-12-29T08:51:09;3.97;;;0.47;;
53479;SDS011;56133;51.012;-1.648;2022-12-29T08:53:35;6.35;;;0.70;;
53479;SDS011;56133;51.012;-1.648;2022-12-29T08:56:01;3.60;;;0.50;;
53479;SDS011;56133;51.012;-1.648;2022-12-29T08:58:27;2.95;;;0.45;;
53479;SDS011;56133;51.012;-1.648;2022-12-29T09:00:53;2.92;;;0.30;;
53479;SDS011;56133;51.012;-1.648;2022-12-29T09:03:19;4.47;;;1.02;;
53479;SDS011;56133;51.012;-1.648;2022-12-29T09:05:49;4.13;;;0.40;;
53479;SDS011;56133;51.012;-1.648;2022-12-29T09:08:19;3.80;;;0.40;;
53479;SDS011;56133;51.012;-1.648;2022-12-29T09:10:45;2.80;;;0.30;;
53479;SDS011;56133;51.012;-1.648;2022-12-29T09:13:11;5.13;;;0.60;;
53479;SDS011;56133;51.012;-1.648;2022-12-29T09:15:38;3.25;;;0.20;;
53479;SDS011;56133;51.012;-1.648;2022-12-29T09:18:04;2.15;;;0.75;;
53479;SDS011;56133;51.012;-1.648;2022-12-29T09:20:30;3.53;;;0.50;;
53479;SDS011;56133;51.012;-1.648;2022-12-29T09:22:56;3.67;;;0.40;;
53479;SDS011;56133;51.012;-1.648;2022-12-29T09:25:21;2.80;;;0.32;;
53479;SDS011;56133;51.012;-1.648;2022-12-29T09:27:49;3.17;;;0.52;;
53479;SDS011;56133;51.012;-1.648;2022-12-29T09:30:17;3.95;;;0.68;;
53479;SDS011;56133;51.012;-1.648;2022-12-29T09:32:43;4.85;;;0.80;;
53479;SDS011;56133;51.012;-1.648;2022-12-29T09:35:08;8.85;;;1.65;;
53479;SDS011;56133;51.012;-1.648;2022-12-29T09:37:34;3.67;;;0.43;;
53479;SDS011;56133;51.012;-1.648;2022-12-29T09:39:59;5.53;;;1.10;;
53479;SDS011;56133;51.012;-1.648;2022-12-29T09:47:38;5.50;;;1.08;;
53479;SDS011;56133;51.012;-1.648;2022-12-29T09:50:11;5.53;;;1.00;;
53479;SDS011;56133;51.012;-1.648;2022-12-29T09:52:43;6.03;;;0.70;;
53479;SDS011;56133;51.012;-1.648;2022-12-29T09:57:46;5.63;;;0.52;;
53479;SDS011;56133;51.012;-1.648;2022-12-29T10:00:18;6.03;;;0.70;;
53479;SDS011;56133;51.012;-1.648;2022-12-29T10:02:56;6.40;;;0.85;;
53479;SDS011;56133;51.012;-1.648;2022-12-29T10:10:53;11.77;;;1.73;;
53479;SDS011;56133;51.012;-1.648;2022-12-29T10:15:53;6.85;;;1.05;;
53479;SDS011;56133;51.012;-1.648;2022-12-29T10:21:17;9.48;;;1.40;;
53479;SDS011;56133;51.012;-1.648;2022-12-29T10:24:03;11.30;;;1.40;;
53479;SDS011;56133;51.012;-1.648;2022-12-29T10:26:33;7.50;;;1.20;;
53479;SDS011;56133;51.012;-1.648;2022-12-29T10:29:25;10.55;;;1.13;;
53479;SDS011;56133;51.012;-1.648;2022-12-29T10:31:58;9.55;;;1.65;;
53479;SDS011;56133;51.012;-1.648;2022-12-29T10:34:29;7.65;;;1.40;;
53479;SDS011;56133;51.012;-1.648;2022-12-29T10:37:09;10.02;;;1.23;;
53479;SDS011;56133;51.012;-1.648;2022-12-29T10:39:52;8.52;;;1.38;;
53479;SDS011;56133;51.012;-1.648;2022-12-29T10:42:35;12.10;;;1.60;;
53479;SDS011;56133;51.012;-1.648;2022-12-29T10:45:05;10.75;;;1.88;;
53479;SDS011;56133;51.012;-1.648;2022-12-29T10:47:38;13.13;;;1.50;;
53479;SDS011;56133;51.012;-1.648;2022-12-29T10:50:26;12.57;;;1.75;;
53479;SDS011;56133;51.012;-1.648;2022-12-29T10:52:54;12.52;;;1.90;;
53479;SDS011;56133;51.012;-1.648;2022-12-29T10:55:22;18.05;;;2.53;;
53479;SDS011;56133;51.012;-1.648;2022-12-29T10:57:53;12.65;;;1.92;;
53479;SDS011;56133;51.012;-1.648;2022-12-29T11:00:22;17.50;;;1.80;;
53479;SDS011;56133;51.012;-1.648;2022-12-29T11:05:37;11.63;;;2.20;;
53479;SDS011;56133;51.012;-1.648;2022-12-29T11:08:10;11.23;;;1.88;;
53479;SDS011;56133;51.012;-1.648;2022-12-29T11:10:40;15.50;;;1.83;;
53479;SDS011;56133;51.012;-1.648;2022-12-29T11:13:17;14.32;;;2.20;;
53479;SDS011;56133;51.012;-1.648;2022-12-29T11:15:49;15.45;;;2.00;;
53479;SDS011;56133;51.012;-1.648;2022-12-29T11:18:32;11.63;;;1.80;;
53479;SDS011;56133;51.012;-1.648;2022-12-29T11:21:03;15.93;;;2.13;;
53479;SDS011;56133;51.012;-1.648;2022-12-29T11:23:55;15.05;;;2.28;;
53479;SDS011;56133;51.012;-1.648;2022-12-29T11:26:26;15.38;;;2.05;;
53479;SDS011;56133;51.012;-1.648;2022-12-29T11:31:49;19.83;;;2.45;;
53479;SDS011;56133;51.012;-1.648;2022-12-29T11:34:18;20.98;;;2.78;;
53479;SDS011;56133;51.012;-1.648;2022-12-29T11:36:43;17.77;;;2.53;;
53479;SDS011;56133;51.012;-1.648;2022-12-29T11:39:20;20.17;;;2.63;;
53479;SDS011;56133;51.012;-1.648;2022-12-29T11:41:53;13.38;;;2.50;;
53479;SDS011;56133;51.012;-1.648;2022-12-29T11:44:18;13.95;;;1.95;;
53479;SDS011;56133;51.012;-1.648;2022-12-29T11:46:46;16.42;;;2.58;;
53479;SDS011;56133;51.012;-1.648;2022-12-29T11:49:19;15.50;;;2.70;;
53479;SDS011;56133;51.012;-1.648;2022-12-29T11:51:47;13.73;;;2.92;;
53479;SDS011;56133;51.012;-1.648;2022-12-29T11:54:19;16.90;;;2.50;;
53479;SDS011;56133;51.012;-1.648;2022-12-29T11:56:49;17.23;;;2.50;;
53479;SDS011;56133;51.012;-1.648;2022-12-29T12:01:57;17.02;;;2.28;;
53479;SDS011;56133;51.012;-1.648;2022-12-29T12:04:25;17.10;;;2.10;;
53479;SDS011;56133;51.012;-1.648;2022-12-29T12:09:47;14.68;;;1.92;;
53479;SDS011;56133;51.012;-1.648;2022-12-29T12:12:23;14.90;;;2.10;;
53479;SDS011;56133;51.012;-1.648;2022-12-29T12:14:56;21.20;;;2.63;;
53479;SDS011;56133;51.012;-1.648;2022-12-29T12:22:50;17.48;;;2.15;;
53479;SDS011;56133;51.012;-1.648;2022-12-29T12:25:25;14.88;;;2.05;;
53479;SDS011;56133;51.012;-1.648;2022-12-29T12:30:45;15.13;;;2.20;;
53479;SDS011;56133;51.012;-1.648;2022-12-29T12:44:05;13.85;;;1.77;;
53479;SDS011;56133;51.012;-1.648;2022-12-29T12:46:48;15.18;;;2.50;;
53479;SDS011;56133;51.012;-1.648;2022-12-29T12:57:45;14.10;;;3.47;;
53479;SDS011;56133;51.012;-1.648;2022-12-29T13:00:12;12.60;;;2.63;;
53479;SDS011;56133;51.012;-1.648;2022-12-29T13:11:02;14.63;;;3.00;;
53479;SDS011;56133;51.012;-1.648;2022-12-29T13:13:44;12.02;;;1.95;;
53479;SDS011;56133;51.012;-1.648;2022-12-29T13:22:04;11.80;;;2.15;;
53479;SDS011;56133;51.012;-1.648;2022-12-29T13:24:38;16.05;;;2.95;;
53479;SDS011;56133;51.012;-1.648;2022-12-29T13:29:47;15.27;;;2.65;;
53479;SDS011;56133;51.012;-1.648;2022-12-29T13:33:04;17.67;;;3.15;;
53479;SDS011;56133;51.012;-1.648;2022-12-29T13:38:29;11.93;;;2.53;;
53479;SDS011;56133;51.012;-1.648;2022-12-29T13:40:56;12.40;;;2.10;;
53479;SDS011;56133;51.012;-1.648;2022-12-29T13:43:27;20.58;;;2.60;;
53479;SDS011;56133;51.012;-1.648;2022-12-29T13:46:14;11.30;;;2.65;;
53479;SDS011;56133;51.012;-1.648;2022-12-29T13:48:46;21.83;;;3.47;;
53479;SDS011;56133;51.012;-1.648;2022-12-29T13:51:16;12.50;;;2.42;;
53479;SDS011;56133;51.012;-1.648;2022-12-29T13:56:51;16.70;;;3.28;;
53479;SDS011;56133;51.012;-1.648;2022-12-29T13:59:33;17.20;;;2.63;;
53479;SDS011;56133;51.012;-1.648;2022-12-29T14:05:01;17.50;;;3.80;;
53479;SDS011;56133;51.012;-1.648;2022-12-29T14:07:29;13.05;;;2.53;;
53479;SDS011;56133;51.012;-1.648;2022-12-29T14:10:02;17.38;;;3.42;;
53479;SDS011;56133;51.012;-1.648;2022-12-29T14:15:02;20.30;;;2.75;;
53479;SDS011;56133;51.012;-1.648;2022-12-29T14:17:34;16.48;;;2.63;;
53479;SDS011;56133;51.012;-1.648;2022-12-29T14:20:00;16.73;;;2.65;;
53479;SDS011;56133;51.012;-1.648;2022-12-29T14:22:28;16.25;;;3.03;;
53479;SDS011;56133;51.012;-1.648;2022-12-29T14:24:53;15.77;;;4.63;;
53479;SDS011;56133;51.012;-1.648;2022-12-29T14:29:46;13.75;;;2.70;;
53479;SDS011;56133;51.012;-1.648;2022-12-29T14:34:50;12.73;;;1.73;;
53479;SDS011;56133;51.012;-1.648;2022-12-29T14:40:28;13.48;;;2.13;;
53479;SDS011;56133;51.012;-1.648;2022-12-29T14:42:48;16.50;;;1.67;;
53479;SDS011;56133;51.012;-1.648;2022-12-29T14:47:47;12.18;;;2.20;;
53479;SDS011;56133;51.012;-1.648;2022-12-29T14:50:15;11.55;;;2.15;;
53479;SDS011;56133;51.012;-1.648;2022-12-29T14:57:52;10.15;;;2.83;;
53479;SDS011;56133;51.012;-1.648;2022-12-29T15:00:31;13.80;;;2.45;;
53479;SDS011;56133;51.012;-1.648;2022-12-29T15:03:04;10.25;;;2.15;;
53479;SDS011;56133;51.012;-1.648;2022-12-29T15:05:33;13.07;;;1.92;;
53479;SDS011;56133;51.012;-1.648;2022-12-29T15:08:03;11.75;;;2.40;;
53479;SDS011;56133;51.012;-1.648;2022-12-29T15:10:38;13.38;;;2.80;;
53479;SDS011;56133;51.012;-1.648;2022-12-29T15:13:14;14.35;;;3.25;;
53479;SDS011;56133;51.012;-1.648;2022-12-29T15:15:43;25.45;;;3.20;;
53479;SDS011;56133;51.012;-1.648;2022-12-29T15:18:13;10.73;;;2.10;;
53479;SDS011;56133;51.012;-1.648;2022-12-29T15:20:39;12.48;;;2.83;;
53479;SDS011;56133;51.012;-1.648;2022-12-29T15:23:10;14.20;;;2.22;;
53479;SDS011;56133;51.012;-1.648;2022-12-29T15:26:12;16.77;;;4.75;;
53479;SDS011;56133;51.012;-1.648;2022-12-29T15:28:39;55.17;;;24.42;;
53479;SDS011;56133;51.012;-1.648;2022-12-29T15:31:13;37.25;;;13.77;;
53479;SDS011;56133;51.012;-1.648;2022-12-29T15:33:42;38.63;;;16.25;;
53479;SDS011;56133;51.012;-1.648;2022-12-29T15:36:11;28.15;;;10.30;;
53479;SDS011;56133;51.012;-1.648;2022-12-29T15:38:38;19.85;;;5.53;;
53479;SDS011;56133;51.012;-1.648;2022-12-29T15:44:29;20.15;;;6.18;;
53479;SDS011;56133;51.012;-1.648;2022-12-29T15:47:02;18.73;;;5.25;;
53479;SDS011;56133;51.012;-1.648;2022-12-29T15:49:34;19.17;;;3.40;;
53479;SDS011;56133;51.012;-1.648;2022-12-29T15:52:00;19.38;;;3.50;;
53479;SDS011;56133;51.012;-1.648;2022-12-29T15:54:32;14.93;;;3.72;;
53479;SDS011;56133;51.012;-1.648;2022-12-29T15:56:57;20.27;;;5.13;;
53479;SDS011;56133;51.012;-1.648;2022-12-29T15:59:24;15.65;;;4.20;;
53479;SDS011;56133;51.012;-1.648;2022-12-29T16:01:54;24.83;;;6.85;;
53479;SDS011;56133;51.012;-1.648;2022-12-29T16:04:21;16.90;;;3.60;;
53479;SDS011;56133;51.012;-1.648;2022-12-29T16:06:55;10.75;;;2.10;;
53479;SDS011;56133;51.012;-1.648;2022-12-29T16:11:59;16.20;;;5.88;;
53479;SDS011;56133;51.012;-1.648;2022-12-29T16:14:29;27.58;;;11.38;;
53479;SDS011;56133;51.012;-1.648;2022-12-29T16:17:01;43.67;;;18.65;;
53479;SDS011;56133;51.012;-1.648;2022-12-29T16:19:35;27.05;;;8.35;;
53479;SDS011;56133;51.012;-1.648;2022-12-29T16:24:36;18.23;;;3.80;;
53479;SDS011;56133;51.012;-1.648;2022-12-29T16:27:07;18.52;;;4.10;;
53479;SDS011;56133;51.012;-1.648;2022-12-29T16:29:39;19.35;;;3.15;;
53479;SDS011;56133;51.012;-1.648;2022-12-29T16:32:21;12.82;;;3.38;;
53479;SDS011;56133;51.012;-1.648;2022-12-29T16:34:47;21.50;;;5.22;;
53479;SDS011;56133;51.012;-1.648;2022-12-29T16:37:29;19.65;;;4.40;;
53479;SDS011;56133;51.012;-1.648;2022-12-29T16:50:41;20.13;;;3.22;;
53479;SDS011;56133;51.012;-1.648;2022-12-29T16:55:53;21.88;;;9.43;;
53479;SDS011;56133;51.012;-1.648;2022-12-29T16:58:26;20.70;;;7.35;;
53479;SDS011;56133;51.012;-1.648;2022-12-29T17:00:56;16.80;;;5.10;;
53479;SDS011;56133;51.012;-1.648;2022-12-29T17:03:30;17.65;;;4.28;;
53479;SDS011;56133;51.012;-1.648;2022-12-29T17:06:03;11.85;;;2.58;;
53479;SDS011;56133;51.012;-1.648;2022-12-29T17:08:28;16.92;;;2.65;;
53479;SDS011;56133;51.012;-1.648;2022-12-29T17:10:55;16.55;;;3.15;;
53479;SDS011;56133;51.012;-1.648;2022-12-29T17:13:40;21.65;;;4.28;;
53479;SDS011;56133;51.012;-1.648;2022-12-29T17:16:06;15.90;;;4.07;;
53479;SDS011;56133;51.012;-1.648;2022-12-29T17:18:34;22.70;;;4.25;;
53479;SDS011;56133;51.012;-1.648;2022-12-29T17:21:00;17.70;;;5.18;;
53479;SDS011;56133;51.012;-1.648;2022-12-29T17:23:26;25.83;;;5.13;;
53479;SDS011;56133;51.012;-1.648;2022-12-29T17:25:52;26.70;;;4.88;;